sensor_id;sensor_type;location;lat;lon;timestamp;temperature;humidity
7254;DHT22;4060;49.186;9.226;2023-08-06T00:00:18;23.90;67.80
7254;DHT22;4060;49.186;9.226;2023-08-06T00:02:50;23.90;67.90
7254;DHT22;4060;49.186;9.226;2023-08-06T00:05:19;24.00;68.20
7254;DHT22;4060;49.186;9.226;2023-08-06T00:07:51;24.00;68.20
7254;DHT22;4060;49.186;9.226;2023-08-06T00:10:21;24.00;68.20
7254;DHT22;4060;49.186;9.226;2023-08-06T00:12:52;24.00;68.10
7254;DHT22;4060;49.186;9.226;2023-08-06T00:15:22;24.10;68.20
7254;DHT22;4060;49.186;9.226;2023-08-06T00:18:00;24.10;68.40
7254;DHT22;4060;49.186;9.226;2023-08-06T00:20:30;24.10;68.40
7254;DHT22;4060;49.186;9.226;2023-08-06T00:22:59;24.10;68.30
7254;DHT22;4060;49.186;9.226;2023-08-06T00:25:30;24.10;68.30
7254;DHT22;4060;49.186;9.226;2023-08-06T00:28:00;24.10;68.30
7254;DHT22;4060;49.186;9.226;2023-08-06T00:30:29;24.10;68.20
7254;DHT22;4060;49.186;9.226;2023-08-06T00:33:02;24.10;68.40
7254;DHT22;4060;49.186;9.226;2023-08-06T00:35:31;24.10;68.40
7254;DHT22;4060;49.186;9.226;2023-08-06T00:38:02;24.10;68.40
7254;DHT22;4060;49.186;9.226;2023-08-06T00:40:33;24.10;68.50
7254;DHT22;4060;49.186;9.226;2023-08-06T00:43:04;24.10;68.50
7254;DHT22;4060;49.186;9.226;2023-08-06T00:45:35;24.10;68.50
7254;DHT22;4060;49.186;9.226;2023-08-06T00:48:08;24.00;68.30
7254;DHT22;4060;49.186;9.226;2023-08-06T00:50:38;24.00;68.20
7254;DHT22;4060;49.186;9.226;2023-08-06T00:53:07;24.00;68.20
7254;DHT22;4060;49.186;9.226;2023-08-06T00:55:38;24.00;68.10
7254;DHT22;4060;49.186;9.226;2023-08-06T00:58:07;24.00;68.20
7254;DHT22;4060;49.186;9.226;2023-08-06T01:00:37;23.90;68.10
7254;DHT22;4060;49.186;9.226;2023-08-06T01:03:09;23.90;68.00
7254;DHT22;4060;49.186;9.226;2023-08-06T01:05:39;23.90;68.00
7254;DHT22;4060;49.186;9.226;2023-08-06T01:08:23;23.90;68.00
7254;DHT22;4060;49.186;9.226;2023-08-06T01:11:11;23.90;68.00
7254;DHT22;4060;49.186;9.226;2023-08-06T01:13:46;23.80;68.00
7254;DHT22;4060;49.186;9.226;2023-08-06T01:16:19;23.80;68.00
7254;DHT22;4060;49.186;9.226;2023-08-06T01:18:51;23.80;68.10
7254;DHT22;4060;49.186;9.226;2023-08-06T01:21:23;23.80;68.10
7254;DHT22;4060;49.186;9.226;2023-08-06T01:23:53;23.70;68.10
7254;DHT22;4060;49.186;9.226;2023-08-06T01:26:29;23.70;68.10
7254;DHT22;4060;49.186;9.226;2023-08-06T01:29:06;23.70;68.20
7254;DHT22;4060;49.186;9.226;2023-08-06T01:31:39;23.70;68.20
7254;DHT22;4060;49.186;9.226;2023-08-06T01:34:12;23.60;68.00
7254;DHT22;4060;49.186;9.226;2023-08-06T01:36:45;23.60;68.10
7254;DHT22;4060;49.186;9.226;2023-08-06T01:39:15;23.60;68.10
7254;DHT22;4060;49.186;9.226;2023-08-06T01:41:48;23.60;68.10
7254;DHT22;4060;49.186;9.226;2023-08-06T01:44:18;23.60;68.20
7254;DHT22;4060;49.186;9.226;2023-08-06T01:46:47;23.50;68.10
7254;DHT22;4060;49.186;9.226;2023-08-06T01:49:18;23.50;68.20
7254;DHT22;4060;49.186;9.226;2023-08-06T01:51:49;23.50;68.20
7254;DHT22;4060;49.186;9.226;2023-08-06T01:54:19;23.50;68.30
7254;DHT22;4060;49.186;9.226;2023-08-06T01:56:49;23.40;68.20
7254;DHT22;4060;49.186;9.226;2023-08-06T01:59:19;23.40;68.20
7254;DHT22;4060;49.186;9.226;2023-08-06T02:01:48;23.40;68.30
7254;DHT22;4060;49.186;9.226;2023-08-06T02:04:18;23.40;68.40
7254;DHT22;4060;49.186;9.226;2023-08-06T02:06:49;23.40;68.40
7254;DHT22;4060;49.186;9.226;2023-08-06T02:09:18;23.30;68.20
7254;DHT22;4060;49.186;9.226;2023-08-06T02:11:48;23.30;68.30
7254;DHT22;4060;49.186;9.226;2023-08-06T02:14:17;23.30;68.30
7254;DHT22;4060;49.186;9.226;2023-08-06T02:16:46;23.30;68.40
7254;DHT22;4060;49.186;9.226;2023-08-06T02:19:17;23.30;68.50
7254;DHT22;4060;49.186;9.226;2023-08-06T02:21:49;23.30;68.50
7254;DHT22;4060;49.186;9.226;2023-08-06T02:24:19;23.30;68.60
7254;DHT22;4060;49.186;9.226;2023-08-06T02:26:50;23.20;68.40
7254;DHT22;4060;49.186;9.226;2023-08-06T02:29:22;23.20;68.40
7254;DHT22;4060;49.186;9.226;2023-08-06T02:31:52;23.20;68.40
7254;DHT22;4060;49.186;9.226;2023-08-06T02:34:22;23.20;68.50
7254;DHT22;4060;49.186;9.226;2023-08-06T02:36:53;23.10;68.40
7254;DHT22;4060;49.186;9.226;2023-08-06T02:39:23;23.10;68.40
7254;DHT22;4060;49.186;9.226;2023-08-06T02:41:52;23.10;68.40
7254;DHT22;4060;49.186;9.226;2023-08-06T02:44:22;23.10;68.50
7254;DHT22;4060;49.186;9.226;2023-08-06T02:46:51;23.00;68.30
7254;DHT22;4060;49.186;9.226;2023-08-06T02:49:51;23.00;68.40
7254;DHT22;4060;49.186;9.226;2023-08-06T02:52:25;23.00;68.40
7254;DHT22;4060;49.186;9.226;2023-08-06T02:54:55;23.00;68.30
7254;DHT22;4060;49.186;9.226;2023-08-06T02:57:27;22.90;68.10
7254;DHT22;4060;49.186;9.226;2023-08-06T02:59:56;23.00;68.30
7254;DHT22;4060;49.186;9.226;2023-08-06T03:02:26;22.90;68.20
7254;DHT22;4060;49.186;9.226;2023-08-06T03:04:56;22.90;68.20
7254;DHT22;4060;49.186;9.226;2023-08-06T03:07:28;22.90;68.20
7254;DHT22;4060;49.186;9.226;2023-08-06T03:09:58;22.90;68.30
7254;DHT22;4060;49.186;9.226;2023-08-06T03:12:28;22.80;68.20
7254;DHT22;4060;49.186;9.226;2023-08-06T03:15:16;22.80;68.20
7254;DHT22;4060;49.186;9.226;2023-08-06T03:17:46;22.80;68.30
7254;DHT22;4060;49.186;9.226;2023-08-06T03:20:15;22.80;69.00
7254;DHT22;4060;49.186;9.226;2023-08-06T03:22:47;22.80;68.30
7254;DHT22;4060;49.186;9.226;2023-08-06T03:25:16;22.80;68.30
7254;DHT22;4060;49.186;9.226;2023-08-06T03:27:45;22.80;68.30
7254;DHT22;4060;49.186;9.226;2023-08-06T03:30:16;22.70;68.20
7254;DHT22;4060;49.186;9.226;2023-08-06T03:32:45;22.70;68.20
7254;DHT22;4060;49.186;9.226;2023-08-06T03:35:15;22.70;68.20
7254;DHT22;4060;49.186;9.226;2023-08-06T03:37:46;22.60;68.10
7254;DHT22;4060;49.186;9.226;2023-08-06T03:40:15;22.60;68.20
7254;DHT22;4060;49.186;9.226;2023-08-06T03:42:44;22.60;68.20
7254;DHT22;4060;49.186;9.226;2023-08-06T03:45:14;22.60;68.20
7254;DHT22;4060;49.186;9.226;2023-08-06T03:47:44;22.60;68.20
7254;DHT22;4060;49.186;9.226;2023-08-06T03:50:13;22.60;68.20
7254;DHT22;4060;49.186;9.226;2023-08-06T03:52:43;22.60;68.30
7254;DHT22;4060;49.186;9.226;2023-08-06T03:55:14;22.50;68.20
7254;DHT22;4060;49.186;9.226;2023-08-06T03:57:44;22.50;68.10
7254;DHT22;4060;49.186;9.226;2023-08-06T04:00:14;22.50;68.20
7254;DHT22;4060;49.186;9.226;2023-08-06T04:02:44;22.50;68.20
7254;DHT22;4060;49.186;9.226;2023-08-06T04:05:15;22.50;68.20
7254;DHT22;4060;49.186;9.226;2023-08-06T04:07:45;22.40;68.10
7254;DHT22;4060;49.186;9.226;2023-08-06T04:10:17;22.40;68.20
7254;DHT22;4060;49.186;9.226;2023-08-06T04:12:46;22.40;68.10
7254;DHT22;4060;49.186;9.226;2023-08-06T04:15:16;22.40;68.10
7254;DHT22;4060;49.186;9.226;2023-08-06T04:17:48;22.40;68.10
7254;DHT22;4060;49.186;9.226;2023-08-06T04:20:18;22.30;67.90
7254;DHT22;4060;49.186;9.226;2023-08-06T04:22:47;22.30;67.90
7254;DHT22;4060;49.186;9.226;2023-08-06T04:25:20;22.30;67.90
7254;DHT22;4060;49.186;9.226;2023-08-06T04:27:50;22.30;67.90
7254;DHT22;4060;49.186;9.226;2023-08-06T04:30:21;22.30;67.90
7254;DHT22;4060;49.186;9.226;2023-08-06T04:32:50;22.20;67.70
7254;DHT22;4060;49.186;9.226;2023-08-06T04:35:20;22.20;67.80
7254;DHT22;4060;49.186;9.226;2023-08-06T04:37:49;22.20;67.70
7254;DHT22;4060;49.186;9.226;2023-08-06T04:40:21;22.20;67.80
7254;DHT22;4060;49.186;9.226;2023-08-06T04:42:50;22.20;67.80
7254;DHT22;4060;49.186;9.226;2023-08-06T04:45:20;22.20;67.90
7254;DHT22;4060;49.186;9.226;2023-08-06T04:47:51;22.20;67.90
7254;DHT22;4060;49.186;9.226;2023-08-06T04:50:20;22.20;67.90
7254;DHT22;4060;49.186;9.226;2023-08-06T04:52:50;22.10;67.70
7254;DHT22;4060;49.186;9.226;2023-08-06T04:55:21;22.10;67.70
7254;DHT22;4060;49.186;9.226;2023-08-06T04:57:51;22.10;67.70
7254;DHT22;4060;49.186;9.226;2023-08-06T05:00:20;22.10;67.70
7254;DHT22;4060;49.186;9.226;2023-08-06T05:02:50;22.10;67.70
7254;DHT22;4060;49.186;9.226;2023-08-06T05:05:20;22.00;67.50
7254;DHT22;4060;49.186;9.226;2023-08-06T05:07:50;22.00;67.40
7254;DHT22;4060;49.186;9.226;2023-08-06T05:10:23;22.00;67.30
7254;DHT22;4060;49.186;9.226;2023-08-06T05:12:53;22.00;67.30
7254;DHT22;4060;49.186;9.226;2023-08-06T05:15:23;22.00;67.20
7254;DHT22;4060;49.186;9.226;2023-08-06T05:17:53;21.90;67.10
7254;DHT22;4060;49.186;9.226;2023-08-06T05:20:22;21.90;67.10
7254;DHT22;4060;49.186;9.226;2023-08-06T05:22:52;21.90;67.10
7254;DHT22;4060;49.186;9.226;2023-08-06T05:25:23;21.90;67.20
7254;DHT22;4060;49.186;9.226;2023-08-06T05:27:52;21.90;67.20
7254;DHT22;4060;49.186;9.226;2023-08-06T05:30:21;21.90;67.20
7254;DHT22;4060;49.186;9.226;2023-08-06T05:32:51;21.80;67.10
7254;DHT22;4060;49.186;9.226;2023-08-06T05:35:20;21.80;67.10
7254;DHT22;4060;49.186;9.226;2023-08-06T05:37:51;21.80;67.20
7254;DHT22;4060;49.186;9.226;2023-08-06T05:40:22;21.80;67.20
7254;DHT22;4060;49.186;9.226;2023-08-06T05:42:53;21.80;67.20
7254;DHT22;4060;49.186;9.226;2023-08-06T05:45:22;21.80;67.20
7254;DHT22;4060;49.186;9.226;2023-08-06T05:47:52;21.80;67.30
7254;DHT22;4060;49.186;9.226;2023-08-06T05:50:24;21.70;67.20
7254;DHT22;4060;49.186;9.226;2023-08-06T05:52:54;21.70;67.30
7254;DHT22;4060;49.186;9.226;2023-08-06T05:55:26;21.70;67.40
7254;DHT22;4060;49.186;9.226;2023-08-06T05:57:55;21.70;67.40
7254;DHT22;4060;49.186;9.226;2023-08-06T06:00:24;21.70;67.40
7254;DHT22;4060;49.186;9.226;2023-08-06T06:02:53;21.70;67.40
7254;DHT22;4060;49.186;9.226;2023-08-06T06:05:23;21.60;67.30
7254;DHT22;4060;49.186;9.226;2023-08-06T06:07:52;21.60;67.30
7254;DHT22;4060;49.186;9.226;2023-08-06T06:10:21;21.60;67.40
7254;DHT22;4060;49.186;9.226;2023-08-06T06:12:52;21.60;67.30
7254;DHT22;4060;49.186;9.226;2023-08-06T06:15:21;21.60;67.50
7254;DHT22;4060;49.186;9.226;2023-08-06T06:17:50;21.60;67.50
7254;DHT22;4060;49.186;9.226;2023-08-06T06:20:20;21.50;67.40
7254;DHT22;4060;49.186;9.226;2023-08-06T06:22:49;21.50;67.40
7254;DHT22;4060;49.186;9.226;2023-08-06T06:25:19;21.50;67.50
7254;DHT22;4060;49.186;9.226;2023-08-06T06:27:48;21.50;67.50
7254;DHT22;4060;49.186;9.226;2023-08-06T06:30:20;21.50;67.50
7254;DHT22;4060;49.186;9.226;2023-08-06T06:32:49;21.50;67.60
7254;DHT22;4060;49.186;9.226;2023-08-06T06:35:18;21.50;67.70
7254;DHT22;4060;49.186;9.226;2023-08-06T06:37:48;21.40;67.70
7254;DHT22;4060;49.186;9.226;2023-08-06T06:40:18;21.50;67.90
7254;DHT22;4060;49.186;9.226;2023-08-06T06:42:48;21.40;67.70
7254;DHT22;4060;49.186;9.226;2023-08-06T06:45:23;21.40;67.70
7254;DHT22;4060;49.186;9.226;2023-08-06T06:47:52;21.40;67.80
7254;DHT22;4060;49.186;9.226;2023-08-06T06:50:22;21.40;67.80
7254;DHT22;4060;49.186;9.226;2023-08-06T06:52:51;21.40;67.90
7254;DHT22;4060;49.186;9.226;2023-08-06T06:55:21;21.40;68.00
7254;DHT22;4060;49.186;9.226;2023-08-06T06:57:50;21.40;68.00
7254;DHT22;4060;49.186;9.226;2023-08-06T07:00:20;21.40;68.00
7254;DHT22;4060;49.186;9.226;2023-08-06T07:02:52;21.30;68.00
7254;DHT22;4060;49.186;9.226;2023-08-06T07:05:21;21.30;68.10
7254;DHT22;4060;49.186;9.226;2023-08-06T07:07:52;21.40;68.20
7254;DHT22;4060;49.186;9.226;2023-08-06T07:10:21;21.30;68.10
7254;DHT22;4060;49.186;9.226;2023-08-06T07:12:51;21.30;68.20
7254;DHT22;4060;49.186;9.226;2023-08-06T07:15:21;21.30;68.30
7254;DHT22;4060;49.186;9.226;2023-08-06T07:17:54;21.30;68.30
7254;DHT22;4060;49.186;9.226;2023-08-06T07:20:26;21.30;68.40
7254;DHT22;4060;49.186;9.226;2023-08-06T07:23:01;21.30;68.30
7254;DHT22;4060;49.186;9.226;2023-08-06T07:25:31;21.30;68.30
7254;DHT22;4060;49.186;9.226;2023-08-06T07:28:01;21.20;68.20
7254;DHT22;4060;49.186;9.226;2023-08-06T07:30:30;21.20;68.10
7254;DHT22;4060;49.186;9.226;2023-08-06T07:33:02;21.20;68.20
7254;DHT22;4060;49.186;9.226;2023-08-06T07:35:31;21.20;68.20
7254;DHT22;4060;49.186;9.226;2023-08-06T07:38:01;21.20;68.20
7254;DHT22;4060;49.186;9.226;2023-08-06T07:40:30;21.20;68.20
7254;DHT22;4060;49.186;9.226;2023-08-06T07:43:01;21.20;68.20
7254;DHT22;4060;49.186;9.226;2023-08-06T07:45:33;21.20;68.20
7254;DHT22;4060;49.186;9.226;2023-08-06T07:48:05;21.20;68.30
7254;DHT22;4060;49.186;9.226;2023-08-06T07:50:34;21.20;68.30
7254;DHT22;4060;49.186;9.226;2023-08-06T07:53:04;21.10;68.20
7254;DHT22;4060;49.186;9.226;2023-08-06T07:55:33;21.20;68.20
7254;DHT22;4060;49.186;9.226;2023-08-06T07:58:03;21.10;68.10
7254;DHT22;4060;49.186;9.226;2023-08-06T08:00:33;21.10;68.10
7254;DHT22;4060;49.186;9.226;2023-08-06T08:03:05;21.10;68.10
7254;DHT22;4060;49.186;9.226;2023-08-06T08:05:34;21.10;68.20
7254;DHT22;4060;49.186;9.226;2023-08-06T08:08:03;21.10;68.10
7254;DHT22;4060;49.186;9.226;2023-08-06T08:10:33;21.10;68.20
7254;DHT22;4060;49.186;9.226;2023-08-06T08:13:03;21.10;68.30
7254;DHT22;4060;49.186;9.226;2023-08-06T08:15:33;21.10;68.30
7254;DHT22;4060;49.186;9.226;2023-08-06T08:18:06;21.10;68.40
7254;DHT22;4060;49.186;9.226;2023-08-06T08:20:36;21.10;68.40
7254;DHT22;4060;49.186;9.226;2023-08-06T08:23:05;21.10;68.60
7254;DHT22;4060;49.186;9.226;2023-08-06T08:25:34;21.10;68.60
7254;DHT22;4060;49.186;9.226;2023-08-06T08:28:04;21.00;68.60
7254;DHT22;4060;49.186;9.226;2023-08-06T08:30:33;21.00;68.50
7254;DHT22;4060;49.186;9.226;2023-08-06T08:33:04;21.00;68.50
7254;DHT22;4060;49.186;9.226;2023-08-06T08:35:36;21.00;68.60
7254;DHT22;4060;49.186;9.226;2023-08-06T08:38:06;21.00;69.40
7254;DHT22;4060;49.186;9.226;2023-08-06T08:40:41;21.00;68.70
7254;DHT22;4060;49.186;9.226;2023-08-06T08:43:15;21.00;68.70
7254;DHT22;4060;49.186;9.226;2023-08-06T08:45:47;21.00;68.70
7254;DHT22;4060;49.186;9.226;2023-08-06T08:48:20;21.00;68.80
7254;DHT22;4060;49.186;9.226;2023-08-06T08:50:51;21.00;68.80
7254;DHT22;4060;49.186;9.226;2023-08-06T08:53:21;21.00;68.90
7254;DHT22;4060;49.186;9.226;2023-08-06T08:55:51;21.00;69.70
7254;DHT22;4060;49.186;9.226;2023-08-06T08:58:20;21.00;69.00
7254;DHT22;4060;49.186;9.226;2023-08-06T09:00:50;21.00;69.00
7254;DHT22;4060;49.186;9.226;2023-08-06T09:03:22;20.90;68.90
7254;DHT22;4060;49.186;9.226;2023-08-06T09:05:53;20.90;69.00
7254;DHT22;4060;49.186;9.226;2023-08-06T09:08:30;20.90;68.90
7254;DHT22;4060;49.186;9.226;2023-08-06T09:11:02;21.00;69.10
7254;DHT22;4060;49.186;9.226;2023-08-06T09:13:31;20.90;69.00
7254;DHT22;4060;49.186;9.226;2023-08-06T09:16:01;20.90;69.10
7254;DHT22;4060;49.186;9.226;2023-08-06T09:18:33;20.90;69.20
7254;DHT22;4060;49.186;9.226;2023-08-06T09:21:02;20.90;69.20
7254;DHT22;4060;49.186;9.226;2023-08-06T09:23:32;20.90;69.10
7254;DHT22;4060;49.186;9.226;2023-08-06T09:26:02;20.90;69.10
7254;DHT22;4060;49.186;9.226;2023-08-06T09:28:38;20.90;69.20
7254;DHT22;4060;49.186;9.226;2023-08-06T09:31:09;20.90;69.20
7254;DHT22;4060;49.186;9.226;2023-08-06T09:33:40;20.90;69.20
7254;DHT22;4060;49.186;9.226;2023-08-06T09:36:11;20.90;69.20
7254;DHT22;4060;49.186;9.226;2023-08-06T09:38:41;20.90;69.20
7254;DHT22;4060;49.186;9.226;2023-08-06T09:41:11;20.90;69.30
7254;DHT22;4060;49.186;9.226;2023-08-06T09:43:51;20.90;69.30
7254;DHT22;4060;49.186;9.226;2023-08-06T09:46:21;20.90;69.40
7254;DHT22;4060;49.186;9.226;2023-08-06T09:48:53;20.90;69.40
7254;DHT22;4060;49.186;9.226;2023-08-06T09:51:23;20.90;69.50
7254;DHT22;4060;49.186;9.226;2023-08-06T09:53:53;20.90;69.50
7254;DHT22;4060;49.186;9.226;2023-08-06T09:56:24;20.90;69.50
7254;DHT22;4060;49.186;9.226;2023-08-06T09:58:54;20.90;69.50
7254;DHT22;4060;49.186;9.226;2023-08-06T10:01:24;20.90;69.50
7254;DHT22;4060;49.186;9.226;2023-08-06T10:03:59;20.90;69.60
7254;DHT22;4060;49.186;9.226;2023-08-06T10:06:29;20.90;69.60
7254;DHT22;4060;49.186;9.226;2023-08-06T10:08:58;20.90;69.60
7254;DHT22;4060;49.186;9.226;2023-08-06T10:11:29;20.90;69.60
7254;DHT22;4060;49.186;9.226;2023-08-06T10:14:04;20.90;69.60
7254;DHT22;4060;49.186;9.226;2023-08-06T10:16:35;20.90;69.70
7254;DHT22;4060;49.186;9.226;2023-08-06T10:19:10;20.90;69.70
7254;DHT22;4060;49.186;9.226;2023-08-06T10:21:40;20.80;69.60
7254;DHT22;4060;49.186;9.226;2023-08-06T10:24:10;20.80;69.50
7254;DHT22;4060;49.186;9.226;2023-08-06T10:26:44;20.80;69.60
7254;DHT22;4060;49.186;9.226;2023-08-06T10:29:38;20.80;69.60
7254;DHT22;4060;49.186;9.226;2023-08-06T10:32:07;20.80;69.60
7254;DHT22;4060;49.186;9.226;2023-08-06T10:34:58;20.80;69.60
7254;DHT22;4060;49.186;9.226;2023-08-06T10:37:38;20.80;69.70
7254;DHT22;4060;49.186;9.226;2023-08-06T10:40:08;20.80;69.90
7254;DHT22;4060;49.186;9.226;2023-08-06T10:42:37;20.80;69.90
7254;DHT22;4060;49.186;9.226;2023-08-06T10:45:17;20.80;70.00
7254;DHT22;4060;49.186;9.226;2023-08-06T10:47:47;20.80;70.10
7254;DHT22;4060;49.186;9.226;2023-08-06T10:50:18;20.80;70.20
7254;DHT22;4060;49.186;9.226;2023-08-06T10:52:48;20.80;70.20
7254;DHT22;4060;49.186;9.226;2023-08-06T10:55:28;20.80;70.20
7254;DHT22;4060;49.186;9.226;2023-08-06T10:57:58;20.80;70.30
7254;DHT22;4060;49.186;9.226;2023-08-06T11:00:28;20.80;70.20
7254;DHT22;4060;49.186;9.226;2023-08-06T11:02:58;20.80;70.30
7254;DHT22;4060;49.186;9.226;2023-08-06T11:05:30;20.80;70.30
7254;DHT22;4060;49.186;9.226;2023-08-06T11:07:59;20.80;70.20
7254;DHT22;4060;49.186;9.226;2023-08-06T11:10:29;20.80;70.10
7254;DHT22;4060;49.186;9.226;2023-08-06T11:13:02;20.80;69.90
7254;DHT22;4060;49.186;9.226;2023-08-06T11:15:32;20.80;70.00
7254;DHT22;4060;49.186;9.226;2023-08-06T11:18:03;20.80;70.10
7254;DHT22;4060;49.186;9.226;2023-08-06T11:20:43;20.70;70.00
7254;DHT22;4060;49.186;9.226;2023-08-06T11:23:12;20.80;70.20
7254;DHT22;4060;49.186;9.226;2023-08-06T11:25:45;20.70;70.10
7254;DHT22;4060;49.186;9.226;2023-08-06T11:28:14;20.70;70.20
7254;DHT22;4060;49.186;9.226;2023-08-06T11:30:44;20.70;70.10
7254;DHT22;4060;49.186;9.226;2023-08-06T11:33:14;20.70;70.20
7254;DHT22;4060;49.186;9.226;2023-08-06T11:35:46;20.70;70.10
7254;DHT22;4060;49.186;9.226;2023-08-06T11:38:15;20.80;70.30
7254;DHT22;4060;49.186;9.226;2023-08-06T11:40:46;20.70;70.10
7254;DHT22;4060;49.186;9.226;2023-08-06T11:43:17;20.70;70.10
7254;DHT22;4060;49.186;9.226;2023-08-06T11:45:48;20.70;70.10
7254;DHT22;4060;49.186;9.226;2023-08-06T11:48:18;20.70;70.10
7254;DHT22;4060;49.186;9.226;2023-08-06T11:50:49;20.70;70.10
7254;DHT22;4060;49.186;9.226;2023-08-06T11:53:18;20.70;70.10
7254;DHT22;4060;49.186;9.226;2023-08-06T11:55:48;20.70;70.10
7254;DHT22;4060;49.186;9.226;2023-08-06T11:58:18;20.70;70.10
7254;DHT22;4060;49.186;9.226;2023-08-06T12:00:49;20.70;70.10
7254;DHT22;4060;49.186;9.226;2023-08-06T12:03:19;20.70;70.10
7254;DHT22;4060;49.186;9.226;2023-08-06T12:05:56;20.70;70.10
7254;DHT22;4060;49.186;9.226;2023-08-06T12:08:27;20.70;70.10
7254;DHT22;4060;49.186;9.226;2023-08-06T12:10:57;20.70;70.10
7254;DHT22;4060;49.186;9.226;2023-08-06T12:13:26;20.70;70.10
7254;DHT22;4060;49.186;9.226;2023-08-06T12:15:56;20.70;70.00
7254;DHT22;4060;49.186;9.226;2023-08-06T12:18:25;20.60;69.80
7254;DHT22;4060;49.186;9.226;2023-08-06T12:20:57;20.60;69.80
7254;DHT22;4060;49.186;9.226;2023-08-06T12:23:26;20.60;69.80
7254;DHT22;4060;49.186;9.226;2023-08-06T12:25:55;20.60;69.70
7254;DHT22;4060;49.186;9.226;2023-08-06T12:28:25;20.60;69.70
7254;DHT22;4060;49.186;9.226;2023-08-06T12:30:55;20.60;69.60
7254;DHT22;4060;49.186;9.226;2023-08-06T12:33:25;20.60;69.60
7254;DHT22;4060;49.186;9.226;2023-08-06T12:35:59;20.60;69.50
7254;DHT22;4060;49.186;9.226;2023-08-06T12:38:30;20.60;69.60
7254;DHT22;4060;49.186;9.226;2023-08-06T12:41:01;20.60;69.60
7254;DHT22;4060;49.186;9.226;2023-08-06T12:43:31;20.60;69.60
7254;DHT22;4060;49.186;9.226;2023-08-06T12:46:01;20.60;69.70
7254;DHT22;4060;49.186;9.226;2023-08-06T12:48:31;20.60;69.60
7254;DHT22;4060;49.186;9.226;2023-08-06T12:51:02;20.60;69.60
7254;DHT22;4060;49.186;9.226;2023-08-06T12:53:32;20.60;69.60
7254;DHT22;4060;49.186;9.226;2023-08-06T12:56:02;20.60;69.60
7254;DHT22;4060;49.186;9.226;2023-08-06T12:58:31;20.50;69.50
7254;DHT22;4060;49.186;9.226;2023-08-06T13:01:01;20.60;69.60
7254;DHT22;4060;49.186;9.226;2023-08-06T13:03:30;20.60;69.40
7254;DHT22;4060;49.186;9.226;2023-08-06T13:06:02;20.50;69.40
7254;DHT22;4060;49.186;9.226;2023-08-06T13:08:31;20.50;69.50
7254;DHT22;4060;49.186;9.226;2023-08-06T13:11:02;20.50;69.50
7254;DHT22;4060;49.186;9.226;2023-08-06T13:13:31;20.50;69.50
7254;DHT22;4060;49.186;9.226;2023-08-06T13:16:00;20.50;69.50
7254;DHT22;4060;49.186;9.226;2023-08-06T13:18:30;20.50;69.50
7254;DHT22;4060;49.186;9.226;2023-08-06T13:21:03;20.50;69.50
7254;DHT22;4060;49.186;9.226;2023-08-06T13:23:32;20.50;69.40
7254;DHT22;4060;49.186;9.226;2023-08-06T13:26:02;20.50;69.40
7254;DHT22;4060;49.186;9.226;2023-08-06T13:28:31;20.50;69.40
7254;DHT22;4060;49.186;9.226;2023-08-06T13:31:02;20.40;69.20
7254;DHT22;4060;49.186;9.226;2023-08-06T13:33:31;20.40;69.30
7254;DHT22;4060;49.186;9.226;2023-08-06T13:36:02;20.50;69.50
7254;DHT22;4060;49.186;9.226;2023-08-06T13:38:31;20.40;69.40
7254;DHT22;4060;49.186;9.226;2023-08-06T13:41:01;20.40;69.50
7254;DHT22;4060;49.186;9.226;2023-08-06T13:43:31;20.40;69.60
7254;DHT22;4060;49.186;9.226;2023-08-06T13:46:00;20.40;69.70
7254;DHT22;4060;49.186;9.226;2023-08-06T13:48:29;20.40;69.80
7254;DHT22;4060;49.186;9.226;2023-08-06T13:51:01;20.40;69.90
7254;DHT22;4060;49.186;9.226;2023-08-06T13:53:31;20.40;70.70
7254;DHT22;4060;49.186;9.226;2023-08-06T13:56:01;20.40;70.10
7254;DHT22;4060;49.186;9.226;2023-08-06T13:58:30;20.40;70.10
7254;DHT22;4060;49.186;9.226;2023-08-06T14:01:00;20.40;70.20
7254;DHT22;4060;49.186;9.226;2023-08-06T14:03:29;20.40;70.20
7254;DHT22;4060;49.186;9.226;2023-08-06T14:06:01;20.40;70.20
7254;DHT22;4060;49.186;9.226;2023-08-06T14:08:31;20.40;70.30
7254;DHT22;4060;49.186;9.226;2023-08-06T14:11:00;20.40;70.30
7254;DHT22;4060;49.186;9.226;2023-08-06T14:13:30;20.50;70.50
7254;DHT22;4060;49.186;9.226;2023-08-06T14:16:05;20.50;70.50
7254;DHT22;4060;49.186;9.226;2023-08-06T14:18:34;20.40;70.30
7254;DHT22;4060;49.186;9.226;2023-08-06T14:21:07;20.40;70.40
7254;DHT22;4060;49.186;9.226;2023-08-06T14:23:36;20.50;70.60
7254;DHT22;4060;49.186;9.226;2023-08-06T14:26:05;20.40;70.40
7254;DHT22;4060;49.186;9.226;2023-08-06T14:28:35;20.40;70.40
7254;DHT22;4060;49.186;9.226;2023-08-06T14:31:05;20.40;70.50
7254;DHT22;4060;49.186;9.226;2023-08-06T14:33:36;20.40;70.50
7254;DHT22;4060;49.186;9.226;2023-08-06T14:36:08;20.40;70.50
7254;DHT22;4060;49.186;9.226;2023-08-06T14:38:38;20.40;70.60
7254;DHT22;4060;49.186;9.226;2023-08-06T14:41:08;20.50;70.60
7254;DHT22;4060;49.186;9.226;2023-08-06T14:43:37;20.40;70.50
7254;DHT22;4060;49.186;9.226;2023-08-06T14:46:07;20.40;70.50
7254;DHT22;4060;49.186;9.226;2023-08-06T14:48:36;20.40;70.50
7254;DHT22;4060;49.186;9.226;2023-08-06T14:51:07;20.50;70.60
7254;DHT22;4060;49.186;9.226;2023-08-06T14:53:37;20.40;70.50
7254;DHT22;4060;49.186;9.226;2023-08-06T14:56:06;20.50;70.60
7254;DHT22;4060;49.186;9.226;2023-08-06T14:58:36;20.40;70.60
7254;DHT22;4060;49.186;9.226;2023-08-06T15:01:05;20.40;70.60
7254;DHT22;4060;49.186;9.226;2023-08-06T15:03:36;20.50;70.70
7254;DHT22;4060;49.186;9.226;2023-08-06T15:06:07;20.50;70.60
7254;DHT22;4060;49.186;9.226;2023-08-06T15:08:36;20.50;70.60
7254;DHT22;4060;49.186;9.226;2023-08-06T15:11:06;20.40;70.50
7254;DHT22;4060;49.186;9.226;2023-08-06T15:13:36;20.50;70.60
7254;DHT22;4060;49.186;9.226;2023-08-06T15:16:06;20.50;70.60
7254;DHT22;4060;49.186;9.226;2023-08-06T15:18:35;20.40;70.50
7254;DHT22;4060;49.186;9.226;2023-08-06T15:21:06;20.50;70.60
7254;DHT22;4060;49.186;9.226;2023-08-06T15:23:36;20.50;70.60
7254;DHT22;4060;49.186;9.226;2023-08-06T15:26:06;20.50;70.60
7254;DHT22;4060;49.186;9.226;2023-08-06T15:28:35;20.40;70.50
7254;DHT22;4060;49.186;9.226;2023-08-06T15:31:05;20.50;70.60
7254;DHT22;4060;49.186;9.226;2023-08-06T15:33:35;20.50;70.60
7254;DHT22;4060;49.186;9.226;2023-08-06T15:36:10;20.50;71.00
7254;DHT22;4060;49.186;9.226;2023-08-06T15:38:39;20.50;70.60
7254;DHT22;4060;49.186;9.226;2023-08-06T15:41:08;20.50;70.60
7254;DHT22;4060;49.186;9.226;2023-08-06T15:43:38;20.50;70.50
7254;DHT22;4060;49.186;9.226;2023-08-06T15:46:08;20.50;70.40
7254;DHT22;4060;49.186;9.226;2023-08-06T15:48:38;20.50;70.40
7254;DHT22;4060;49.186;9.226;2023-08-06T15:51:10;20.50;70.40
7254;DHT22;4060;49.186;9.226;2023-08-06T15:53:39;20.50;70.40
7254;DHT22;4060;49.186;9.226;2023-08-06T15:56:09;20.50;70.40
7254;DHT22;4060;49.186;9.226;2023-08-06T15:58:38;20.50;70.40
7254;DHT22;4060;49.186;9.226;2023-08-06T16:01:08;20.50;70.30
7254;DHT22;4060;49.186;9.226;2023-08-06T16:03:39;20.40;70.20
7254;DHT22;4060;49.186;9.226;2023-08-06T16:06:11;20.40;70.20
7254;DHT22;4060;49.186;9.226;2023-08-06T16:08:41;20.50;70.40
7254;DHT22;4060;49.186;9.226;2023-08-06T16:11:11;20.50;70.40
7254;DHT22;4060;49.186;9.226;2023-08-06T16:13:40;20.40;70.30
7254;DHT22;4060;49.186;9.226;2023-08-06T16:16:10;20.40;70.30
7254;DHT22;4060;49.186;9.226;2023-08-06T16:18:39;20.40;70.30
7254;DHT22;4060;49.186;9.226;2023-08-06T16:21:11;20.40;70.30
7254;DHT22;4060;49.186;9.226;2023-08-06T16:23:40;20.40;70.30